Time;durP1;ratioP1;P1;durP2;ratioP2;P2;SDS_P1;SDS_P2;PMS_P1;PMS_P2;Temp;Humidity;BMP_temperature;BMP_pressure;BME280_temperature;BME280_humidity;BME280_pressure;Samples;Min_cycle;Max_cycle;Signal;HPM_P1;HPM_P2
2023/07/24 00:02:13;;;;;;;12.27;6.37;;;20.30;99.90;;;;;;7304807;19;20206;-74
2023/07/24 00:04:39;;;;;;;12.63;6.33;;;20.30;99.90;;;;;;7281697;19;20217;-77
2023/07/24 00:07:06;;;;;;;14.40;5.93;;;20.40;99.90;;;;;;7282216;19;20185;-74
2023/07/24 00:09:32;;;;;;;14.23;6.00;;;20.50;99.90;;;;;;7282016;19;20234;-74
2023/07/24 00:11:58;;;;;;;13.50;5.57;;;20.40;99.90;;;;;;7278715;19;20259;-75
2023/07/24 00:14:27;;;;;;;15.83;6.43;;;20.40;99.90;;;;;;7282319;19;20211;-77
2023/07/24 00:16:53;;;;;;;14.00;5.70;;;20.40;99.90;;;;;;7282857;19;20188;-77
2023/07/24 00:19:18;;;;;;;13.80;6.47;;;20.50;99.90;;;;;;7282589;19;20182;-77
2023/07/24 00:21:45;;;;;;;15.13;6.40;;;20.50;99.90;;;;;;7295747;19;20210;-75
2023/07/24 00:24:11;;;;;;;12.37;5.60;;;20.60;99.90;;;;;;7301433;19;20187;-75
2023/07/24 00:26:37;;;;;;;13.93;5.83;;;20.60;99.90;;;;;;7282280;19;20573;-78
2023/07/24 00:29:03;;;;;;;14.60;5.93;;;20.60;99.90;;;;;;7281417;19;20219;-78
2023/07/24 00:31:28;;;;;;;13.37;6.30;;;20.60;99.90;;;;;;7283765;19;20644;-75
2023/07/24 00:33:54;;;;;;;15.83;6.60;;;20.60;99.90;;;;;;7284057;19;20189;-75
2023/07/24 00:36:20;;;;;;;14.90;6.00;;;20.50;99.90;;;;;;7281252;19;20657;-77
2023/07/24 00:38:45;;;;;;;15.90;6.50;;;20.60;99.90;;;;;;7292187;19;20187;-75
2023/07/24 00:41:14;;;;;;;15.50;6.53;;;20.60;99.90;;;;;;7302004;19;20184;-75
2023/07/24 00:43:39;;;;;;;16.53;6.43;;;20.70;99.90;;;;;;7279504;19;20630;-78
2023/07/24 00:46:05;;;;;;;15.67;6.10;;;20.70;99.90;;;;;;7276687;19;20185;-75
2023/07/24 00:48:31;;;;;;;14.20;6.23;;;20.70;99.90;;;;;;7277103;19;20196;-75
2023/07/24 00:50:59;;;;;;;13.90;6.30;;;20.60;99.90;;;;;;7279878;19;20188;-75
2023/07/24 00:53:25;;;;;;;13.67;5.47;;;20.70;99.90;;;;;;7274245;19;20185;-75
2023/07/24 00:55:51;;;;;;;17.83;6.13;;;20.70;99.90;;;;;;7277073;19;20224;-75
2023/07/24 00:58:17;;;;;;;17.13;5.87;;;20.60;99.90;;;;;;7278075;19;20221;-75
2023/07/24 01:00:43;;;;;;;13.47;6.17;;;20.70;99.90;;;;;;7301156;19;20315;-75
2023/07/24 01:03:09;;;;;;;13.23;6.10;;;20.60;99.90;;;;;;7277683;19;20248;-77
2023/07/24 01:05:36;;;;;;;15.00;5.87;;;20.50;99.90;;;;;;7276872;19;20189;-74
2023/07/24 01:08:02;;;;;;;15.60;6.27;;;20.50;99.90;;;;;;7278033;19;20533;-74
2023/07/24 01:10:30;;;;;;;15.13;5.87;;;20.40;99.90;;;;;;7279761;19;20199;-76
2023/07/24 01:13:08;;;;;;;16.13;6.30;;;20.40;99.90;;;;;;7277343;19;20222;-77
2023/07/24 01:15:38;;;;;;;13.30;6.00;;;20.40;99.90;;;;;;7279183;19;20187;-76
2023/07/24 01:18:08;;;;;;;14.63;5.97;;;20.10;99.90;;;;;;7277124;19;20757;-74
2023/07/24 01:20:42;;;;;;;12.13;6.13;;;20.00;99.90;;;;;;7277720;19;20187;-74
2023/07/24 01:23:18;;;;;;;14.70;6.10;;;19.90;99.90;;;;;;7275425;19;20251;-74
2023/07/24 01:26:04;;;;;;;14.13;6.27;;;19.70;99.90;;;;;;7279396;19;20191;-76
2023/07/24 01:28:30;;;;;;;14.67;6.53;;;19.70;99.90;;;;;;7176418;19;2004585;-77
2023/07/24 01:30:58;;;;;;;13.97;6.57;;;19.70;99.90;;;;;;7278318;19;20528;-75
2023/07/24 01:33:24;;;;;;;19.40;7.07;;;19.70;99.90;;;;;;7278776;19;20186;-75
2023/07/24 01:36:00;;;;;;;15.17;7.17;;;19.70;99.90;;;;;;7276547;19;20193;-74
2023/07/24 01:38:27;;;;;;;20.63;7.13;;;19.60;99.90;;;;;;7278471;19;20690;-75
2023/07/24 01:40:57;;;;;;;15.23;7.53;;;19.60;99.90;;;;;;7276997;19;20788;-75
2023/07/24 01:43:28;;;;;;;15.77;7.47;;;19.50;99.90;;;;;;7277516;19;20186;-77
2023/07/24 01:45:54;;;;;;;15.20;6.93;;;19.50;99.90;;;;;;7276876;19;20704;-77
2023/07/24 01:48:20;;;;;;;12.13;6.23;;;19.50;99.90;;;;;;7276878;19;20221;-75
2023/07/24 01:50:47;;;;;;;13.57;6.37;;;19.50;99.90;;;;;;7278693;19;20553;-76
2023/07/24 01:53:13;;;;;;;14.57;5.60;;;19.50;99.90;;;;;;7299992;19;20191;-77
2023/07/24 01:55:40;;;;;;;11.70;5.40;;;19.50;99.90;;;;;;7275655;19;20187;-76
2023/07/24 01:58:06;;;;;;;11.93;5.30;;;19.50;99.90;;;;;;7277081;19;20627;-75
2023/07/24 02:00:31;;;;;;;11.37;4.47;;;19.50;99.90;;;;;;7276147;19;20193;-74
2023/07/24 02:02:57;;;;;;;10.33;4.60;;;19.60;99.90;;;;;;7275627;19;20611;-74
2023/07/24 02:05:23;;;;;;;10.47;4.30;;;19.60;99.90;;;;;;7281454;19;20183;-74
2023/07/24 02:07:48;;;;;;;9.87;4.20;;;19.70;99.90;;;;;;7280450;19;20603;-76
2023/07/24 02:10:15;;;;;;;8.50;4.23;;;19.70;99.90;;;;;;7302403;19;20266;-75
2023/07/24 02:12:41;;;;;;;9.27;3.87;;;19.70;99.90;;;;;;7292113;19;20253;-74
2023/07/24 02:15:07;;;;;;;8.30;3.70;;;19.70;99.90;;;;;;7286007;19;20193;-77
2023/07/24 02:17:32;;;;;;;7.30;3.53;;;19.80;99.90;;;;;;7284187;19;20649;-75
2023/07/24 02:19:58;;;;;;;9.37;4.17;;;19.80;99.90;;;;;;7283251;19;20211;-77
2023/07/24 02:22:24;;;;;;;11.17;3.87;;;19.70;99.90;;;;;;7282178;19;20192;-77
2023/07/24 02:24:50;;;;;;;9.23;3.97;;;19.70;99.90;;;;;;7282911;19;20213;-77
2023/07/24 02:27:31;;;;;;;12.83;3.80;;;19.80;99.90;;;;;;7289812;19;20584;-77
2023/07/24 02:29:58;;;;;;;10.27;3.87;;;19.90;99.90;;;;;;7287583;19;20183;-75
2023/07/24 02:32:24;;;;;;;12.30;4.00;;;19.90;99.90;;;;;;7283566;19;20190;-75
2023/07/24 02:34:50;;;;;;;10.97;4.50;;;19.90;99.90;;;;;;7281885;19;20256;-75
2023/07/24 02:37:16;;;;;;;10.43;4.17;;;19.90;99.90;;;;;;7291507;19;20720;-75
2023/07/24 02:39:41;;;;;;;12.50;4.80;;;19.90;99.90;;;;;;7304165;19;20185;-75
2023/07/24 02:42:07;;;;;;;12.87;4.87;;;20.00;99.90;;;;;;7283981;19;20282;-77
2023/07/24 02:44:34;;;;;;;13.57;5.13;;;20.00;99.90;;;;;;7279928;19;20197;-77
2023/07/24 02:47:01;;;;;;;11.70;5.57;;;20.00;99.90;;;;;;7282527;19;20193;-77
2023/07/24 02:49:28;;;;;;;13.23;5.60;;;19.90;99.90;;;;;;7284072;19;20221;-77
2023/07/24 02:51:53;;;;;;;12.73;5.23;;;19.90;99.90;;;;;;7282705;19;20196;-77
2023/07/24 02:54:19;;;;;;;13.27;4.37;;;20.00;99.90;;;;;;7282488;19;20214;-77
2023/07/24 02:56:45;;;;;;;14.50;4.83;;;20.00;99.90;;;;;;7301987;19;20560;-75
2023/07/24 02:59:10;;;;;;;9.00;4.33;;;20.00;99.90;;;;;;7294479;19;20184;-78
2023/07/24 03:01:36;;;;;;;12.03;4.17;;;20.00;99.90;;;;;;7283695;19;20243;-78
2023/07/24 03:04:02;;;;;;;7.40;3.37;;;20.00;99.90;;;;;;7282786;19;20592;-78
2023/07/24 03:06:32;;;;;;;6.70;3.10;;;20.00;99.90;;;;;;7282534;19;20223;-77
2023/07/24 03:08:58;;;;;;;7.87;2.90;;;20.10;99.90;;;;;;7283549;19;20614;-78
2023/07/24 03:11:24;;;;;;;7.33;2.60;;;20.10;99.90;;;;;;7283147;19;20270;-77
2023/07/24 03:13:49;;;;;;;4.67;2.40;;;19.90;99.90;;;;;;7280489;19;20185;-77
2023/07/24 03:16:17;;;;;;;5.83;2.30;;;19.90;99.90;;;;;;7295941;19;20206;-76
2023/07/24 03:18:43;;;;;;;5.17;2.40;;;19.80;99.90;;;;;;7304851;19;20275;-77
2023/07/24 03:21:09;;;;;;;5.90;2.47;;;19.70;99.90;;;;;;7281675;19;20305;-77
2023/07/24 03:23:34;;;;;;;7.97;3.03;;;19.60;99.90;;;;;;7281686;19;20296;-77
2023/07/24 03:26:00;;;;;;;6.43;2.53;;;19.60;99.90;;;;;;7282185;19;20181;-77
2023/07/24 03:28:26;;;;;;;5.20;2.60;;;19.50;99.90;;;;;;7281089;19;20192;-77
2023/07/24 03:30:53;;;;;;;5.77;2.50;;;19.50;99.90;;;;;;7280756;19;20190;-77
2023/07/24 03:33:20;;;;;;;6.53;2.47;;;19.50;99.90;;;;;;7280944;19;20211;-77
2023/07/24 03:35:45;;;;;;;6.47;2.70;;;19.50;99.90;;;;;;7294741;19;20212;-76
2023/07/24 03:38:11;;;;;;;8.53;2.73;;;19.50;99.90;;;;;;7295428;19;20286;-78
2023/07/24 03:40:37;;;;;;;4.40;2.50;;;19.40;99.90;;;;;;7282547;19;20186;-78
2023/07/24 03:43:03;;;;;;;5.40;2.37;;;19.40;99.90;;;;;;7280908;19;20186;-78
2023/07/24 03:45:29;;;;;;;6.13;2.53;;;19.40;99.90;;;;;;7280931;19;20218;-75
2023/07/24 03:47:55;;;;;;;4.80;2.40;;;19.30;99.90;;;;;;7279729;19;20239;-75
2023/07/24 03:50:20;;;;;;;5.47;2.50;;;19.30;99.90;;;;;;7280879;19;20221;-75
2023/07/24 03:52:46;;;;;;;5.60;2.43;;;19.30;99.90;;;;;;7287612;19;20192;-77
2023/07/24 03:55:12;;;;;;;5.03;2.23;;;19.30;99.90;;;;;;7303885;19;20181;-78
2023/07/24 03:57:37;;;;;;;5.20;2.60;;;19.30;99.90;;;;;;7280019;19;20541;-75
2023/07/24 04:00:04;;;;;;;7.07;2.80;;;19.30;99.90;;;;;;7281103;19;20215;-76
2023/07/24 04:02:39;;;;;;;6.77;2.80;;;19.20;99.90;;;;;;7278268;19;20203;-75
2023/07/24 04:05:05;;;;;;;6.80;2.60;;;19.20;99.90;;;;;;7280995;19;20202;-76
2023/07/24 04:07:31;;;;;;;5.10;2.43;;;19.20;99.90;;;;;;7281202;19;20185;-78
2023/07/24 04:09:56;;;;;;;5.93;2.70;;;19.20;99.90;;;;;;7280769;19;20198;-78
2023/07/24 04:12:22;;;;;;;5.20;2.40;;;19.20;99.90;;;;;;7280591;19;20193;-77
2023/07/24 04:14:48;;;;;;;5.47;2.40;;;19.20;99.90;;;;;;7280093;19;20193;-77
2023/07/24 04:17:15;;;;;;;4.03;2.27;;;19.20;99.90;;;;;;7302881;19;20186;-78
2023/07/24 04:19:41;;;;;;;3.90;2.17;;;19.10;99.90;;;;;;7282733;19;20208;-78
2023/07/24 04:22:07;;;;;;;3.63;2.10;;;19.00;99.90;;;;;;7280947;19;20263;-78
2023/07/24 04:24:33;;;;;;;6.00;2.60;;;19.00;99.90;;;;;;7279458;19;20189;-78
2023/07/24 04:26:58;;;;;;;4.50;2.23;;;19.00;99.90;;;;;;7278923;19;20851;-77
2023/07/24 04:29:25;;;;;;;5.13;2.37;;;19.00;99.90;;;;;;7279984;19;20185;-77
2023/07/24 04:31:51;;;;;;;4.50;2.30;;;19.10;99.90;;;;;;7279962;19;20193;-77
2023/07/24 04:34:17;;;;;;;4.27;2.23;;;19.10;99.90;;;;;;7280221;19;20214;-77
2023/07/24 04:36:43;;;;;;;3.67;2.30;;;19.20;99.90;;;;;;7301912;19;20186;-76
2023/07/24 04:39:08;;;;;;;4.53;2.40;;;19.30;99.90;;;;;;7280359;19;20198;-77
2023/07/24 04:41:34;;;;;;;8.17;2.80;;;19.30;99.90;;;;;;7280336;19;20209;-76
2023/07/24 04:44:00;;;;;;;5.73;2.93;;;19.30;99.90;;;;;;7278352;19;20196;-76
2023/07/24 04:46:25;;;;;;;6.77;3.00;;;19.30;99.90;;;;;;7279522;19;20181;-76
2023/07/24 04:48:51;;;;;;;5.63;2.83;;;19.40;99.90;;;;;;7280292;19;20286;-76
2023/07/24 04:51:18;;;;;;;6.37;2.70;;;19.50;99.90;;;;;;7283129;19;20196;-76
2023/07/24 04:53:44;;;;;;;5.47;2.70;;;19.60;99.90;;;;;;7300578;19;20572;-76
2023/07/24 04:56:10;;;;;;;6.80;2.87;;;19.70;99.90;;;;;;7276897;19;20659;-76
2023/07/24 04:58:36;;;;;;;7.87;2.70;;;19.70;99.90;;;;;;7280932;19;20207;-73
2023/07/24 05:01:03;;;;;;;5.77;2.63;;;19.70;99.90;;;;;;7277971;19;20187;-74
2023/07/24 05:03:30;;;;;;;4.90;2.37;;;19.70;99.90;;;;;;7277267;19;20193;-74
2023/07/24 05:05:56;;;;;;;5.90;2.40;;;19.70;99.90;;;;;;7277580;19;20200;-75
2023/07/24 05:08:22;;;;;;;5.13;2.40;;;19.60;99.90;;;;;;7278145;19;20182;-74
2023/07/24 05:10:57;;;;;;;4.47;2.40;;;19.50;99.90;;;;;;7277341;19;20274;-74
2023/07/24 05:13:22;;;;;;;4.13;2.13;;;19.50;99.90;;;;;;7280639;19;20185;-77
2023/07/24 05:15:48;;;;;;;4.57;2.37;;;19.60;99.90;;;;;;7279744;19;20208;-77
2023/07/24 05:18:14;;;;;;;4.37;2.13;;;19.50;99.90;;;;;;7302844;19;20268;-76
2023/07/24 05:20:44;;;;;;;6.20;2.03;;;19.40;99.90;;;;;;7279230;19;20208;-77
2023/07/24 05:23:10;;;;;;;6.50;3.10;;;19.40;99.90;;;;;;7278134;19;20200;-77
2023/07/24 05:25:36;;;;;;;3.20;2.00;;;19.30;99.90;;;;;;7278821;19;20605;-77
2023/07/24 05:28:01;;;;;;;5.57;2.00;;;19.50;99.90;;;;;;7278575;19;20177;-77
2023/07/24 05:30:28;;;;;;;4.40;2.20;;;19.60;99.90;;;;;;7279078;19;20189;-77
2023/07/24 05:32:53;;;;;;;4.50;2.57;;;19.60;99.90;;;;;;7278282;19;20186;-77
2023/07/24 05:35:20;;;;;;;5.90;2.33;;;19.70;99.90;;;;;;7277770;19;20884;-75
2023/07/24 05:37:45;;;;;;;6.33;2.20;;;19.60;99.90;;;;;;7294481;19;20892;-75
2023/07/24 05:40:11;;;;;;;6.80;2.30;;;19.60;99.90;;;;;;7295977;19;20206;-75
2023/07/24 05:42:41;;;;;;;4.87;2.30;;;19.50;99.90;;;;;;7284486;19;21032;-75
2023/07/24 05:45:08;;;;;;;5.33;2.50;;;19.70;99.90;;;;;;7283388;19;20185;-75
2023/07/24 05:47:34;;;;;;;4.67;2.10;;;19.60;99.90;;;;;;7283870;19;20265;-74
2023/07/24 05:50:00;;;;;;;5.93;2.27;;;19.60;99.90;;;;;;7285227;19;20259;-74
2023/07/24 05:52:26;;;;;;;4.63;2.20;;;19.80;99.90;;;;;;7283135;19;21291;-74
2023/07/24 05:54:51;;;;;;;5.53;2.33;;;20.10;99.90;;;;;;7283487;19;20217;-74
2023/07/24 05:57:17;;;;;;;4.20;2.03;;;20.30;99.90;;;;;;7285234;19;20197;-74
2023/07/24 05:59:43;;;;;;;5.40;2.10;;;20.50;99.90;;;;;;7304860;19;20188;-74
2023/07/24 06:02:09;;;;;;;5.13;2.40;;;20.40;99.90;;;;;;7283091;19;20207;-74
2023/07/24 06:04:36;;;;;;;4.97;2.40;;;20.50;99.90;;;;;;7282498;19;20203;-75
2023/07/24 06:07:01;;;;;;;5.87;2.30;;;20.80;99.90;;;;;;7283754;19;20199;-75
2023/07/24 06:09:27;;;;;;;5.03;2.27;;;20.80;99.90;;;;;;7284402;19;20219;-76
2023/07/24 06:11:53;;;;;;;7.00;2.67;;;21.00;99.90;;;;;;7283696;19;20221;-74
2023/07/24 06:14:18;;;;;;;3.10;2.00;;;21.40;99.90;;;;;;7283106;19;20605;-74
2023/07/24 06:16:44;;;;;;;7.17;2.10;;;21.50;99.90;;;;;;7304314;19;20210;-74
2023/07/24 06:19:10;;;;;;;3.33;1.83;;;22.10;99.90;;;;;;7283920;19;20201;-75
2023/07/24 06:21:35;;;;;;;3.83;1.73;;;22.80;99.90;;;;;;7284060;19;20238;-74
2023/07/24 06:24:01;;;;;;;4.67;1.80;;;23.00;99.90;;;;;;7280790;19;20189;-74
2023/07/24 06:26:27;;;;;;;3.70;1.90;;;23.00;99.90;;;;;;7280410;19;20203;-75
2023/07/24 06:28:52;;;;;;;3.17;1.73;;;23.20;99.90;;;;;;7278005;19;20199;-75
2023/07/24 06:31:18;;;;;;;4.10;1.90;;;23.80;99.90;;;;;;7281129;19;20778;-75
2023/07/24 06:33:44;;;;;;;4.10;1.93;;;25.30;99.90;;;;;;7298671;19;20189;-75
2023/07/24 06:36:10;;;;;;;4.47;1.57;;;25.90;99.90;;;;;;7281971;19;20216;-75
2023/07/24 06:38:36;;;;;;;3.17;1.77;;;25.60;99.90;;;;;;7282572;19;20205;-75
2023/07/24 06:41:02;;;;;;;4.25;1.77;;;25.20;99.90;;;;;;7283550;19;20205;-75
2023/07/24 06:43:28;;;;;;;3.80;1.83;;;25.00;99.90;;;;;;7282541;19;20217;-76
2023/07/24 06:45:54;;;;;;;4.10;1.70;;;24.60;99.90;;;;;;7282773;19;20185;-76
2023/07/24 06:48:20;;;;;;;3.67;1.83;;;24.30;99.90;;;;;;7282335;19;20189;-75
2023/07/24 06:50:45;;;;;;;3.30;1.80;;;24.10;99.90;;;;;;7302973;19;20193;-76
2023/07/24 06:53:11;;;;;;;4.83;1.93;;;24.30;99.90;;;;;;7295938;19;20732;-78
2023/07/24 06:55:37;;;;;;;3.20;1.60;;;24.40;99.90;;;;;;7287220;19;20189;-78
2023/07/24 06:58:02;;;;;;;3.27;1.87;;;24.40;99.90;;;;;;7287092;19;20185;-78
2023/07/24 07:00:28;;;;;;;3.47;1.50;;;24.00;99.90;;;;;;7287618;19;20193;-78
2023/07/24 07:02:54;;;;;;;4.40;1.80;;;23.70;99.90;;;;;;7286658;19;20200;-77
2023/07/24 07:05:19;;;;;;;6.73;2.17;;;23.80;99.90;;;;;;7286064;19;20277;-78
2023/07/24 07:07:45;;;;;;;5.80;1.77;;;23.80;99.90;;;;;;7309250;19;20189;-79
2023/07/24 07:10:11;;;;;;;3.27;1.83;;;23.60;99.90;;;;;;7287660;19;20197;-78
2023/07/24 07:12:36;;;;;;;3.30;1.60;;;23.20;99.90;;;;;;7287657;19;20324;-79
2023/07/24 07:15:02;;;;;;;6.43;2.17;;;22.80;99.90;;;;;;7284430;19;20185;-79
2023/07/24 07:17:28;;;;;;;4.47;1.90;;;22.60;99.90;;;;;;7288101;19;20225;-79
2023/07/24 07:19:56;;;;;;;3.50;2.10;;;22.40;99.90;;;;;;7288723;19;20185;-78
2023/07/24 07:22:21;;;;;;;5.70;2.33;;;22.40;99.90;;;;;;7288639;19;20206;-79
2023/07/24 07:24:47;;;;;;;4.50;2.00;;;21.90;99.90;;;;;;7291041;19;20184;-78
2023/07/24 07:27:17;;;;;;;6.13;2.10;;;21.80;99.90;;;;;;7309618;19;20287;-80
2023/07/24 07:29:43;;;;;;;3.90;2.13;;;21.90;99.90;;;;;;7287996;19;20523;-79
2023/07/24 07:32:09;;;;;;;5.97;2.20;;;22.20;99.90;;;;;;7289471;19;20185;-79
2023/07/24 07:34:35;;;;;;;5.87;2.30;;;22.50;99.90;;;;;;7289444;19;20247;-79
2023/07/24 07:37:01;;;;;;;4.67;2.20;;;23.10;99.90;;;;;;7286528;19;20603;-79
2023/07/24 07:39:27;;;;;;;5.23;2.20;;;23.40;99.90;;;;;;7287279;19;20188;-78
2023/07/24 07:41:53;;;;;;;6.40;2.40;;;23.90;99.90;;;;;;7287194;19;20577;-78
2023/07/24 07:44:18;;;;;;;4.50;2.03;;;24.40;99.90;;;;;;7289287;19;20271;-77
2023/07/24 07:46:44;;;;;;;3.97;2.23;;;24.60;99.90;;;;;;7306513;19;20273;-78
2023/07/24 07:49:10;;;;;;;6.57;2.10;;;24.50;99.90;;;;;;7286444;19;20189;-78
2023/07/24 07:51:36;;;;;;;5.03;2.30;;;24.40;99.90;;;;;;7287232;19;20186;-78
2023/07/24 07:54:01;;;;;;;5.60;2.20;;;24.40;99.90;;;;;;7287448;19;20599;-78
2023/07/24 07:56:28;;;;;;;4.13;2.00;;;24.40;99.90;;;;;;7286182;19;20617;-78
2023/07/24 07:58:54;;;;;;;7.33;2.27;;;24.10;99.90;;;;;;7286360;19;20189;-78
2023/07/24 08:01:20;;;;;;;4.33;1.90;;;23.90;99.90;;;;;;7284998;19;20192;-78
2023/07/24 08:03:45;;;;;;;7.73;2.23;;;23.70;99.90;;;;;;7305740;19;20250;-79
2023/07/24 08:06:12;;;;;;;4.20;2.10;;;23.60;99.90;;;;;;7285257;19;20197;-78
2023/07/24 08:08:38;;;;;;;5.13;2.47;;;23.50;99.90;;;;;;7285279;19;20249;-79
2023/07/24 08:11:06;;;;;;;6.20;2.40;;;23.50;99.90;;;;;;7284512;19;20217;-79
2023/07/24 08:13:32;;;;;;;4.83;2.20;;;23.40;99.90;;;;;;7285692;19;20219;-79
2023/07/24 08:15:59;;;;;;;5.37;2.20;;;23.10;99.90;;;;;;7286219;19;20621;-78
2023/07/24 08:18:25;;;;;;;4.77;2.20;;;23.00;99.90;;;;;;7285387;19;20236;-78
2023/07/24 08:20:51;;;;;;;5.10;1.90;;;22.70;99.90;;;;;;7285236;19;20196;-78
2023/07/24 08:23:17;;;;;;;5.73;2.10;;;22.30;99.90;;;;;;7295653;19;20185;-78
2023/07/24 08:25:55;;;;;;;5.10;2.30;;;22.10;99.90;;;;;;7303495;19;20215;-79
2023/07/24 08:28:21;;;;;;;6.50;2.50;;;22.10;99.90;;;;;;7260948;19;20286;-78
2023/07/24 08:30:56;;;;;;;5.20;2.50;;;22.00;99.90;;;;;;7298239;19;20204;-77
2023/07/24 08:33:21;;;;;;;5.73;2.40;;;22.00;99.90;;;;;;7282893;19;20709;-78
2023/07/24 08:35:47;;;;;;;5.83;2.40;;;21.90;99.90;;;;;;7289486;19;20312;-77
2023/07/24 08:38:13;;;;;;;5.90;2.30;;;21.70;99.90;;;;;;7302399;19;20188;-78
2023/07/24 08:40:39;;;;;;;6.83;2.70;;;21.60;99.90;;;;;;7281113;19;20663;-78
2023/07/24 08:43:05;;;;;;;4.70;2.60;;;21.20;99.90;;;;;;7280781;19;20320;-78
2023/07/24 08:45:31;;;;;;;6.20;2.80;;;21.00;99.90;;;;;;7280625;19;20749;-78
2023/07/24 08:47:58;;;;;;;7.03;2.67;;;21.00;99.90;;;;;;7280896;19;20200;-78
2023/07/24 08:50:25;;;;;;;7.93;2.97;;;21.00;99.90;;;;;;7280971;19;20193;-78
2023/07/24 08:52:51;;;;;;;5.07;2.93;;;20.90;99.90;;;;;;7279794;19;20200;-78
2023/07/24 08:55:17;;;;;;;6.00;3.00;;;20.80;99.90;;;;;;7294876;19;20297;-79
2023/07/24 08:57:43;;;;;;;7.13;3.43;;;20.80;99.90;;;;;;7301008;19;20194;-77
2023/07/24 09:00:09;;;;;;;7.30;3.13;;;20.60;99.90;;;;;;7279275;19;20196;-77
2023/07/24 09:02:35;;;;;;;7.03;3.50;;;20.60;99.90;;;;;;7279009;19;20578;-77
2023/07/24 09:05:02;;;;;;;7.33;3.57;;;20.60;99.90;;;;;;7279662;19;20244;-77
2023/07/24 09:07:29;;;;;;;6.47;3.27;;;20.60;99.90;;;;;;7279018;19;20222;-77
2023/07/24 09:09:54;;;;;;;6.83;3.63;;;20.70;99.90;;;;;;7279430;19;20199;-77
2023/07/24 09:12:22;;;;;;;7.30;3.87;;;20.80;99.90;;;;;;7276989;19;20199;-77
2023/07/24 09:14:48;;;;;;;7.60;4.00;;;20.90;99.90;;;;;;7279916;19;20229;-77
2023/07/24 09:17:14;;;;;;;9.33;4.10;;;20.90;99.90;;;;;;7301601;19;20643;-78
2023/07/24 09:19:40;;;;;;;7.53;4.10;;;21.00;99.90;;;;;;7278924;19;20638;-78
2023/07/24 09:22:16;;;;;;;8.57;3.83;;;21.00;99.90;;;;;;7278350;19;20185;-78
2023/07/24 09:24:56;;;;;;;6.60;3.33;;;20.90;99.90;;;;;;7281660;19;20191;-77
2023/07/24 09:27:26;;;;;;;6.90;3.53;;;20.80;99.90;;;;;;7176437;19;2004976;-77
2023/07/24 09:29:52;;;;;;;7.57;3.53;;;20.90;99.90;;;;;;7277254;19;20198;-76
2023/07/24 09:32:25;;;;;;;8.70;3.40;;;21.10;99.90;;;;;;7282927;19;20187;-77
2023/07/24 09:34:51;;;;;;;7.43;3.93;;;21.60;99.90;;;;;;7278448;19;20666;-77
2023/07/24 09:37:28;;;;;;;6.27;3.00;;;22.10;99.90;;;;;;7288468;19;20218;-77
2023/07/24 09:39:53;;;;;;;6.00;3.30;;;22.50;99.90;;;;;;7279886;19;20192;-77
2023/07/24 09:42:34;;;;;;;7.07;3.13;;;22.80;99.90;;;;;;7278364;19;20188;-77
2023/07/24 09:45:03;;;;;;;7.47;3.30;;;23.00;99.90;;;;;;7278715;19;20557;-77
2023/07/24 09:47:30;;;;;;;7.83;3.90;;;23.20;99.90;;;;;;7279310;19;20189;-79
2023/07/24 09:49:56;;;;;;;7.07;3.30;;;23.40;99.90;;;;;;7278111;19;20189;-79
2023/07/24 09:52:23;;;;;;;8.73;2.97;;;23.80;99.90;;;;;;7278200;19;20204;-78
2023/07/24 09:54:55;;;;;;;6.13;3.00;;;24.10;99.90;;;;;;7279350;19;20188;-77
2023/07/24 09:57:22;;;;;;;6.33;2.90;;;24.10;99.90;;;;;;7277559;19;20185;-78
2023/07/24 09:59:49;;;;;;;5.97;2.40;;;24.00;99.90;;;;;;7281146;19;20185;-78
2023/07/24 10:02:17;;;;;;;5.00;2.60;;;24.10;99.90;;;;;;7299161;19;20184;-79
2023/07/24 10:04:44;;;;;;;5.37;2.63;;;24.30;99.90;;;;;;7277573;19;20656;-78
2023/07/24 10:07:10;;;;;;;5.73;2.47;;;25.20;99.90;;;;;;7276923;19;20181;-78
2023/07/24 10:09:37;;;;;;;5.80;2.53;;;26.20;99.90;;;;;;7279147;19;20192;-77
2023/07/24 10:12:03;;;;;;;6.82;2.60;;;26.40;99.90;;;;;;7277539;19;20193;-77
2023/07/24 10:14:30;;;;;;;4.40;2.53;;;26.60;99.90;;;;;;7276199;19;20210;-77
2023/07/24 10:16:56;;;;;;;4.80;2.30;;;26.80;99.90;;;;;;7275601;19;20774;-76
2023/07/24 10:19:22;;;;;;;5.80;2.42;;;26.70;99.90;;;;;;7276421;19;20205;-76
2023/07/24 10:21:50;;;;;;;4.13;2.33;;;25.80;99.90;;;;;;7279745;19;20194;-76
2023/07/24 10:24:16;;;;;;;5.10;2.38;;;25.80;99.90;;;;;;7298758;19;20592;-76
2023/07/24 10:26:42;;;;;;;4.28;2.05;;;26.20;99.90;;;;;;7281268;19;20185;-77
2023/07/24 10:29:09;;;;;;;5.18;2.30;;;26.30;99.90;;;;;;7282941;19;20190;-77
2023/07/24 10:31:35;;;;;;;6.38;2.22;;;26.50;99.90;;;;;;7282284;19;20181;-76
2023/07/24 10:34:07;;;;;;;4.70;2.33;;;26.50;99.90;;;;;;7282698;19;20684;-77
2023/07/24 10:36:35;;;;;;;4.67;2.27;;;26.40;99.90;;;;;;7282540;19;20542;-77
2023/07/24 10:39:02;;;;;;;4.72;2.33;;;26.30;99.90;;;;;;7281999;19;20188;-77
2023/07/24 10:41:37;;;;;;;5.30;2.20;;;26.40;99.90;;;;;;7282283;19;20787;-77
2023/07/24 10:44:03;;;;;;;5.88;2.40;;;26.40;99.90;;;;;;7283939;19;20685;-76
2023/07/24 10:46:39;;;;;;;6.15;2.40;;;27.10;99.90;;;;;;7281877;19;20268;-76
2023/07/24 10:49:08;;;;;;;4.10;2.20;;;27.60;99.90;;;;;;7283024;19;20196;-76
2023/07/24 10:51:37;;;;;;;3.63;2.05;;;27.20;99.90;;;;;;7283283;19;20193;-76
2023/07/24 10:54:04;;;;;;;5.07;2.33;;;26.90;99.90;;;;;;7282456;19;20192;-76
2023/07/24 10:56:29;;;;;;;4.80;2.40;;;26.60;99.90;;;;;;7281582;19;20227;-76
2023/07/24 10:58:55;;;;;;;4.50;2.33;;;26.20;99.90;;;;;;7282369;19;20715;-76
2023/07/24 11:01:23;;;;;;;4.05;2.42;;;25.90;99.90;;;;;;7281901;19;20212;-76
2023/07/24 11:03:50;;;;;;;4.77;2.60;;;25.50;99.90;;;;;;7280593;19;20214;-76
2023/07/24 11:06:17;;;;;;;6.43;2.75;;;25.30;99.90;;;;;;7302060;19;20193;-76
2023/07/24 11:08:56;;;;;;;5.73;2.83;;;25.60;99.90;;;;;;7280999;19;20196;-76
2023/07/24 11:11:27;;;;;;;6.78;2.58;;;25.80;99.90;;;;;;7177013;19;2004667;-76
2023/07/24 11:13:53;;;;;;;7.43;2.33;;;25.90;99.90;;;;;;7279913;19;20185;-76
2023/07/24 11:16:18;;;;;;;7.93;2.80;;;26.00;99.90;;;;;;7282760;19;20185;-75
2023/07/24 11:18:48;;;;;;;4.60;2.43;;;25.80;99.90;;;;;;7303424;19;20525;-75
2023/07/24 11:21:16;;;;;;;6.37;2.90;;;25.40;99.90;;;;;;7280319;19;20180;-75
2023/07/24 11:23:50;;;;;;;4.65;2.30;;;25.10;99.90;;;;;;7281797;19;20227;-75
2023/07/24 11:26:22;;;;;;;6.35;2.55;;;26.40;99.90;;;;;;7281156;19;20662;-75
2023/07/24 11:28:50;;;;;;;6.75;2.60;;;27.20;99.90;;;;;;7270660;19;20185;-75
2023/07/24 11:31:15;;;;;;;4.88;2.28;;;28.40;99.90;;;;;;7303690;19;20681;-76
2023/07/24 11:33:43;;;;;;;8.57;2.42;;;29.40;99.90;;;;;;7282050;19;20314;-76
2023/07/24 11:36:10;;;;;;;4.97;2.22;;;29.60;99.90;;;;;;7279175;19;20891;-76
2023/07/24 11:38:37;;;;;;;6.05;2.65;;;30.20;99.90;;;;;;7281241;19;20644;-76
2023/07/24 11:41:03;;;;;;;4.82;2.38;;;30.00;99.90;;;;;;7278673;19;20587;-76
2023/07/24 11:43:29;;;;;;;5.30;2.08;;;30.20;99.90;;;;;;7280754;19;20270;-76
2023/07/24 11:45:55;;;;;;;4.30;2.22;;;31.70;99.90;;;;;;7279365;19;20211;-76
2023/07/24 11:48:23;;;;;;;5.30;2.75;;;31.30;99.90;;;;;;7278639;19;20257;-76
2023/07/24 11:50:59;;;;;;;4.50;2.35;;;31.20;99.90;;;;;;7280141;19;20987;-76
2023/07/24 11:53:29;;;;;;;5.43;2.50;;;31.20;99.90;;;;;;7280682;19;20202;-77
2023/07/24 11:55:59;;;;;;;7.85;2.88;;;30.40;99.90;;;;;;7281232;19;20184;-77
2023/07/24 11:58:30;;;;;;;4.95;2.45;;;31.30;99.90;;;;;;7281717;19;20205;-77
2023/07/24 12:00:56;;;;;;;7.35;2.47;;;32.70;99.90;;;;;;7279655;19;20180;-75
2023/07/24 12:03:28;;;;;;;5.70;2.60;;;34.30;99.90;;;;;;7280745;19;20196;-76
2023/07/24 12:05:54;;;;;;;8.10;2.58;;;35.20;96.70;;;;;;7279824;19;20635;-76
2023/07/24 12:08:37;;;;;;;6.05;2.90;;;34.40;96.60;;;;;;7279486;19;20629;-76
2023/07/24 12:11:03;;;;;;;5.30;2.72;;;33.30;99.10;;;;;;7280758;19;20206;-76
2023/07/24 12:13:29;;;;;;;4.35;2.60;;;32.60;98.40;;;;;;7280039;19;20660;-75
2023/07/24 12:15:54;;;;;;;5.68;2.60;;;32.50;99.70;;;;;;7280537;19;20189;-76
2023/07/24 12:18:20;;;;;;;6.45;2.65;;;32.00;98.40;;;;;;7279034;19;20623;-75
2023/07/24 12:20:47;;;;;;;7.18;2.70;;;31.80;99.90;;;;;;7298882;19;20256;-75
2023/07/24 12:23:13;;;;;;;7.32;2.85;;;31.40;99.90;;;;;;7292419;19;20248;-75
2023/07/24 12:25:38;;;;;;;5.85;2.75;;;30.90;99.90;;;;;;7279819;19;20218;-76
2023/07/24 12:28:04;;;;;;;6.93;2.65;;;29.50;99.90;;;;;;7278736;19;20519;-76
2023/07/24 12:30:30;;;;;;;6.53;2.78;;;28.80;99.90;;;;;;7279084;19;20220;-76
2023/07/24 12:32:55;;;;;;;6.88;2.47;;;28.30;99.90;;;;;;7279365;19;20843;-76
2023/07/24 12:35:21;;;;;;;5.80;2.83;;;27.50;99.90;;;;;;7274776;19;20204;-76
2023/07/24 12:37:47;;;;;;;6.00;2.40;;;27.10;99.90;;;;;;7300464;19;20654;-76
2023/07/24 12:40:13;;;;;;;7.40;2.70;;;26.80;99.90;;;;;;7279242;19;20193;-77
2023/07/24 12:42:39;;;;;;;8.35;2.67;;;26.70;99.90;;;;;;7278280;19;20939;-76
2023/07/24 12:45:05;;;;;;;7.30;2.90;;;26.60;99.90;;;;;;7278109;19;20197;-76